DNMM/LOS METAR and TAF weather

Enter ICAO airport designator
Station Type Date Time Source
DNMM METAR 2021/06/22 16:00 UTC NOAA

DNMM 221600Z 21009KT 9999 BKN013 FEW020CB 30/24 Q1011 TEMPO TS


Station Type Date Time Source
DNMM Decoded METAR 2021/06/22 16:00 UTC NOAA

Lagos / Ikeja, Nigeria (DNMM) 06-35N 003-20E 38M
Jun 22, 2021 - 12:00 PM EDT / 2021.06.22 1600 UTC
Wind: from the SSW (210 degrees) at 10 MPH (9 KT):0
Visibility: greater than 7 mile(s):0
Sky conditions: mostly cloudy
Weather: Cumulonimbus clouds observed
Temperature: 86 F (30 C)
Heat index: 95.0 F (35.0 C):1
Dew Point: 75 F (24 C)
Relative Humidity: 70%
Pressure (altimeter): 29.85 in. Hg (1011 hPa)
ob: DNMM 221600Z 21009KT 9999 BKN013 FEW020CB 30/24 Q1011 TEMPO TS
cycle: 16

Station Type Date Time Source
DNMM TAF 2021/06/22 00:17 UTC NOAA

TAF DNMM 212300Z 2200/2306 VRB02KT 8000 SCT009
TEMPO 2205/2207 TS SCT009 FEW020CB
BECMG 2208/2210 24010KT BKN013 FEW020CB
TEMPO 2210/2217 TS PROB30 2211/2215 5000 -TSRA BKN009 FEW019CB
BECMG 2218/2220 VRB02KT SCT010

Example: see airport list